Cielo Mare — V7TK9 — position and weather

sailwx.info

Track history (hours):
 
Tides and Currents Weather Stations Pressure Air Temp Water Temp Dewpoint Dewpoint Depression Visibility Wind Speed Wind Dir Waves Ship Positions

Cielo Mare

Last reported at 2017-Dec-28 18:46 UTC. Time now 2018-Jan-18 07:53 UTC.
Position N 32°42' W 117°20'.
Warning: this ship's position is 20 days out of date.

Length 42 m; draft 2.3 m.

Type: Pleasure craft. MMSI: 538070708.

Date/timePositionNaut miles runAvg speedWind from/ knotsBaromVisibWave heightAir tempDewpointWater temp
2017-Dec-28 18:46N 32°42' W 117°20'412.1
2017-Dec-28 18:27N 32°45' W 117°22'511.9
2017-Dec-28 18:00N 32°50' W 117°25'611.7
2017-Dec-28 17:30N 32°55' W 117°28'611.9
2017-Dec-28 17:00N 33°01' W 117°32'611.9
2017-Dec-28 16:30N 33°06' W 117°35'912.2
2017-Dec-28 15:48N 33°14' W 117°39'412.2
2017-Dec-28 15:29N 33°17' W 117°41'612.1
2017-Dec-28 15:00N 33°22' W 117°44'  
Track history (hours):
 
Tides and Currents Weather Stations Pressure Air Temp Water Temp Dewpoint Dewpoint Depression Visibility Wind Speed Wind Dir Waves Ship Positions

Cielo Mare

Last reported at 2017-Dec-28 18:46 UTC. Time now 2018-Jan-18 07:53 UTC.
Position N 32°42' W 117°20'.
Warning: this ship's position is 20 days out of date.

Length 42 m; draft 2.3 m.

Type: Pleasure craft. MMSI: 538070708.

Date/timePositionNaut miles runAvg speedWind from/ knotsBaromVisibWave heightAir tempDewpointWater temp
2017-Dec-28 18:46N 32°42' W 117°20'412.1
2017-Dec-28 18:27N 32°45' W 117°22'511.9
2017-Dec-28 18:00N 32°50' W 117°25'611.7
2017-Dec-28 17:30N 32°55' W 117°28'611.9
2017-Dec-28 17:00N 33°01' W 117°32'611.9
2017-Dec-28 16:30N 33°06' W 117°35'912.2
2017-Dec-28 15:48N 33°14' W 117°39'412.2
2017-Dec-28 15:29N 33°17' W 117°41'612.1
2017-Dec-28 15:00N 33°22' W 117°44'  

Dump ship's entire track history